createdAt,value
2022-12-26T00:02:10.861Z,85.31
2022-12-26T00:04:49.355Z,85.26
2022-12-26T00:07:25.017Z,85.29
2022-12-26T00:09:57.610Z,85.32
2022-12-26T00:12:30.003Z,85.34
2022-12-26T00:15:02.405Z,85.54
2022-12-26T00:17:34.752Z,85.46
2022-12-26T00:20:08.635Z,85.64
2022-12-26T00:22:40.979Z,85.53
2022-12-26T00:25:13.560Z,85.51
2022-12-26T00:27:45.940Z,85.64
2022-12-26T00:30:19.240Z,85.48
2022-12-26T00:32:53.958Z,85.56
2022-12-26T00:35:26.455Z,85.54
2022-12-26T00:37:59.727Z,85.71
2022-12-26T00:40:32.133Z,85.72
2022-12-26T00:43:04.579Z,85.75
2022-12-26T00:45:37.075Z,85.90
2022-12-26T00:48:09.752Z,86.07
2022-12-26T00:50:45.097Z,86.00
2022-12-26T00:53:17.425Z,86.08
2022-12-26T00:55:49.953Z,85.89
2022-12-26T00:58:23.086Z,86.00
2022-12-26T01:00:55.734Z,86.12
2022-12-26T01:03:28.154Z,86.06
2022-12-26T01:06:03.341Z,86.25
2022-12-26T01:08:34.154Z,86.27
2022-12-26T01:11:09.325Z,86.17
2022-12-26T01:13:40.346Z,86.45
2022-12-26T01:16:12.803Z,86.29
2022-12-26T01:18:45.220Z,86.59
2022-12-26T01:21:17.591Z,86.54
2022-12-26T01:23:49.921Z,86.54
2022-12-26T01:26:22.644Z,86.56
2022-12-26T01:28:55.558Z,86.45
2022-12-26T01:31:28.071Z,86.56
2022-12-26T01:34:00.608Z,86.60
2022-12-26T01:36:33.008Z,86.68
2022-12-26T01:39:05.406Z,86.68
2022-12-26T01:41:37.765Z,86.88
2022-12-26T01:44:47.220Z,86.71
2022-12-26T01:47:22.436Z,87.01
2022-12-26T01:49:54.737Z,86.92
2022-12-26T01:52:30.816Z,87.11
2022-12-26T01:55:05.187Z,87.04
2022-12-26T01:57:43.040Z,87.25
2022-12-26T02:00:18.354Z,87.15
2022-12-26T02:03:09.435Z,87.18
2022-12-26T02:05:43.865Z,87.32
2022-12-26T02:08:21.560Z,87.45
2022-12-26T02:10:58.287Z,87.42
2022-12-26T02:13:31.835Z,87.36
2022-12-26T02:16:05.110Z,87.53
2022-12-26T02:18:37.923Z,87.26
2022-12-26T02:21:30.639Z,87.39
2022-12-26T02:24:35.627Z,87.43
2022-12-26T02:27:31.740Z,87.37
2022-12-26T02:30:27.246Z,87.57
2022-12-26T02:33:27.651Z,87.84
2022-12-26T02:36:18.589Z,87.42
2022-12-26T02:39:03.455Z,87.56
2022-12-26T02:42:07.728Z,87.64
2022-12-26T02:45:05.577Z,87.51
2022-12-26T02:47:43.826Z,87.96
2022-12-26T02:50:43.110Z,87.71
2022-12-26T02:53:39.728Z,87.86
2022-12-26T02:56:37.122Z,87.90
2022-12-26T02:59:53.867Z,87.67
2022-12-26T03:02:49.048Z,88.13
2022-12-26T03:05:46.313Z,88.10
2022-12-26T03:08:43.879Z,88.26
2022-12-26T03:11:34.044Z,88.11
2022-12-26T03:14:15.810Z,88.31
2022-12-26T03:17:11.749Z,88.18
2022-12-26T03:19:58.488Z,88.17
2022-12-26T03:22:38.168Z,88.45
2022-12-26T03:25:46.207Z,88.48
2022-12-26T03:28:18.986Z,88.36
2022-12-26T03:30:52.169Z,88.38
2022-12-26T03:33:45.732Z,88.72
2022-12-26T03:36:27.107Z,88.43
2022-12-26T03:39:10.485Z,88.85
2022-12-26T03:42:09.797Z,88.97
2022-12-26T03:45:06.966Z,88.88
2022-12-26T03:48:04.485Z,89.05
2022-12-26T03:50:58.181Z,89.07
2022-12-26T03:53:54.787Z,89.40
2022-12-26T03:56:51.977Z,89.22
2022-12-26T03:59:47.524Z,89.27
2022-12-26T04:02:40.162Z,89.32
2022-12-26T04:05:33.761Z,89.51
2022-12-26T04:08:42.614Z,89.61
2022-12-26T04:11:35.759Z,89.84
2022-12-26T04:14:31.734Z,89.54
2022-12-26T04:17:23.857Z,89.56
2022-12-26T04:20:06.813Z,89.57
2022-12-26T04:23:03.715Z,89.88
2022-12-26T04:26:00.096Z,89.84
2022-12-26T04:28:50.283Z,89.76
2022-12-26T04:31:46.107Z,89.81
2022-12-26T04:34:44.667Z,89.76
2022-12-26T04:37:39.852Z,90.03
2022-12-26T04:40:35.546Z,89.78
2022-12-26T04:43:48.822Z,89.99
2022-12-26T04:46:23.393Z,90.24
2022-12-26T04:49:29.822Z,89.94
2022-12-26T04:52:01.563Z,90.00
2022-12-26T04:54:33.907Z,90.22
2022-12-26T04:57:07.069Z,90.41
2022-12-26T04:59:39.391Z,90.23
2022-12-26T05:02:30.410Z,90.31
2022-12-26T05:05:16.776Z,90.28
2022-12-26T05:08:06.893Z,90.59
2022-12-26T05:10:39.291Z,90.62
2022-12-26T05:13:11.690Z,90.61
2022-12-26T05:15:57.954Z,90.58
2022-12-26T05:18:47.875Z,90.51
2022-12-26T05:21:39.037Z,90.48
2022-12-26T05:24:30.685Z,90.63
2022-12-26T05:27:25.893Z,90.56
2022-12-26T05:29:58.396Z,90.60
2022-12-26T05:32:48.613Z,90.77
2022-12-26T05:35:21.625Z,90.87
2022-12-26T05:37:54.050Z,91.04
2022-12-26T05:40:26.345Z,90.92
2022-12-26T05:42:58.830Z,90.88
2022-12-26T05:45:31.147Z,90.94
2022-12-26T05:48:04.028Z,91.26
2022-12-26T05:50:36.377Z,91.10
2022-12-26T05:53:08.754Z,91.00
2022-12-26T05:55:41.634Z,91.12
2022-12-26T05:58:13.984Z,91.35
2022-12-26T06:00:46.335Z,91.21
2022-12-26T06:03:18.844Z,91.21
2022-12-26T06:05:51.317Z,91.28
2022-12-26T06:08:23.683Z,91.51
2022-12-26T06:10:55.974Z,91.61
2022-12-26T06:13:28.399Z,91.34
2022-12-26T06:16:00.808Z,91.35
2022-12-26T06:18:33.171Z,91.37
2022-12-26T06:21:11.136Z,91.35
2022-12-26T06:23:44.181Z,91.38
2022-12-26T06:26:17.509Z,91.55
2022-12-26T06:28:49.925Z,91.51
2022-12-26T06:31:25.208Z,91.45
2022-12-26T06:34:01.511Z,91.46
2022-12-26T06:36:33.836Z,91.78
2022-12-26T06:39:06.434Z,91.81
2022-12-26T06:41:38.796Z,91.64
2022-12-26T06:44:17.972Z,91.70
2022-12-26T06:46:51.082Z,91.64
2022-12-26T06:49:32.151Z,92.12
2022-12-26T06:52:05.353Z,92.00
2022-12-26T06:54:37.756Z,91.79
2022-12-26T06:57:10.437Z,91.83
2022-12-26T06:59:42.780Z,91.83
2022-12-26T07:02:15.349Z,92.08
2022-12-26T07:04:47.834Z,91.99
2022-12-26T07:07:20.267Z,92.19
2022-12-26T07:09:52.657Z,92.04
2022-12-26T07:12:26.293Z,92.13
2022-12-26T07:15:01.712Z,92.58
2022-12-26T07:17:34.615Z,92.28
2022-12-26T07:20:08.166Z,92.23
2022-12-26T07:22:40.952Z,92.26
2022-12-26T07:25:13.622Z,92.11
2022-12-26T07:27:46.028Z,92.15
2022-12-26T07:30:18.760Z,92.18
2022-12-26T07:32:51.159Z,92.27
2022-12-26T07:35:23.566Z,92.28
2022-12-26T07:37:56.310Z,92.36
2022-12-26T07:40:29.511Z,92.75
2022-12-26T07:43:01.989Z,92.97
2022-12-26T07:45:34.409Z,92.64
2022-12-26T07:48:07.119Z,92.86
2022-12-26T07:50:39.461Z,92.68
2022-12-26T07:53:11.907Z,92.80
2022-12-26T07:55:45.541Z,92.96
2022-12-26T07:58:18.010Z,92.80
2022-12-26T08:00:50.490Z,92.92
2022-12-26T08:03:23.043Z,92.99
2022-12-26T08:05:55.795Z,92.66
2022-12-26T08:08:28.671Z,92.96
2022-12-26T08:11:04.850Z,92.90
2022-12-26T08:13:37.343Z,93.00
2022-12-26T08:16:12.346Z,93.04
2022-12-26T08:18:45.519Z,93.01
2022-12-26T08:21:18.291Z,93.27
2022-12-26T08:23:50.699Z,93.06
2022-12-26T08:26:23.538Z,93.14
2022-12-26T08:28:58.272Z,92.95
2022-12-26T08:31:30.751Z,93.36
2022-12-26T08:34:03.063Z,93.32
2022-12-26T08:36:35.432Z,93.44
2022-12-26T08:39:08.497Z,93.49
2022-12-26T08:41:40.924Z,93.33
2022-12-26T08:44:27.211Z,93.48
2022-12-26T08:47:00.427Z,93.57
2022-12-26T08:49:32.811Z,93.53
2022-12-26T08:52:05.352Z,93.46
2022-12-26T08:54:37.922Z,93.60
2022-12-26T08:57:11.032Z,93.67
2022-12-26T08:59:43.789Z,93.86
2022-12-26T09:02:16.324Z,93.73
2022-12-26T09:04:48.842Z,93.82
2022-12-26T09:07:21.883Z,93.75
2022-12-26T09:09:54.202Z,93.87
2022-12-26T09:12:27.398Z,93.97
2022-12-26T09:14:59.767Z,94.01
2022-12-26T09:17:32.703Z,94.27
2022-12-26T09:20:05.472Z,94.22
2022-12-26T09:22:52.993Z,94.17
2022-12-26T09:25:27.794Z,94.23
2022-12-26T09:28:00.371Z,94.19
2022-12-26T09:30:33.434Z,94.08
2022-12-26T09:33:08.446Z,94.01
2022-12-26T09:35:43.720Z,94.24
2022-12-26T09:38:16.033Z,94.32
2022-12-26T09:40:59.746Z,94.72
2022-12-26T09:43:50.200Z,94.47
2022-12-26T09:46:40.266Z,94.78
2022-12-26T09:49:16.807Z,94.78
2022-12-26T09:51:54.127Z,94.88
2022-12-26T09:54:32.660Z,95.57
2022-12-26T09:57:14.584Z,95.19
2022-12-26T09:59:52.516Z,95.24
2022-12-26T10:02:27.806Z,95.32
2022-12-26T10:05:00.595Z,95.40
2022-12-26T10:07:41.771Z,95.39
2022-12-26T10:10:20.689Z,95.46
2022-12-26T10:13:04.363Z,95.77
2022-12-26T10:15:46.699Z,95.63
2022-12-26T10:18:31.850Z,95.66
2022-12-26T10:21:30.206Z,95.65
2022-12-26T10:24:09.603Z,96.09
2022-12-26T10:26:44.695Z,96.26
2022-12-26T10:29:23.310Z,96.29
2022-12-26T10:32:00.518Z,96.68
2022-12-26T10:34:36.583Z,96.72
2022-12-26T10:37:19.378Z,97.13
2022-12-26T10:39:57.360Z,96.88
2022-12-26T10:42:34.485Z,97.29
2022-12-26T10:45:17.336Z,97.29
2022-12-26T10:47:51.860Z,97.93
2022-12-26T10:50:28.033Z,97.92
2022-12-26T10:53:01.955Z,97.85
2022-12-26T10:55:36.118Z,97.92
2022-12-26T10:58:16.900Z,98.17
2022-12-26T11:00:49.363Z,98.33
2022-12-26T11:03:22.720Z,97.72
2022-12-26T11:06:13.138Z,98.14
2022-12-26T11:08:51.723Z,98.58
2022-12-26T11:11:27.354Z,98.59
2022-12-26T11:14:03.491Z,98.64
2022-12-26T11:16:39.924Z,98.94
2022-12-26T11:19:29.937Z,99.19
2022-12-26T11:22:24.344Z,98.88
2022-12-26T11:25:19.789Z,98.95
2022-12-26T11:27:54.628Z,99.02
2022-12-26T11:30:33.007Z,99.23
2022-12-26T11:33:22.383Z,99.20
2022-12-26T11:36:03.256Z,99.16
2022-12-26T11:38:49.016Z,99.48
2022-12-26T11:41:36.484Z,99.32
2022-12-26T11:44:30.478Z,99.70
2022-12-26T11:47:10.397Z,99.48
2022-12-26T11:49:48.397Z,98.76
2022-12-26T11:52:42.306Z,98.83
2022-12-26T11:55:31.113Z,99.41
2022-12-26T11:58:16.472Z,99.26
2022-12-26T12:01:07.734Z,99.74
2022-12-26T12:03:48.870Z,99.62
2022-12-26T12:06:46.479Z,99.60
2022-12-26T12:09:26.709Z,99.58
2022-12-26T12:12:07.279Z,99.54
2022-12-26T12:14:54.753Z,99.32
2022-12-26T12:17:36.543Z,99.28
2022-12-26T12:20:32.606Z,99.57
2022-12-26T12:23:30.445Z,99.69
2022-12-26T12:26:12.498Z,99.52
2022-12-26T12:29:28.756Z,99.48
2022-12-26T12:32:15.098Z,99.37
2022-12-26T12:35:09.079Z,99.46
2022-12-26T12:38:08.457Z,99.53
2022-12-26T12:40:49.713Z,99.68
2022-12-26T12:43:29.574Z,99.54
2022-12-26T12:46:12.595Z,99.51
2022-12-26T12:49:07.282Z,99.52
2022-12-26T12:51:48.926Z,99.78
2022-12-26T12:54:50.967Z,99.80
2022-12-26T12:57:31.302Z,99.55
2022-12-26T13:00:15.585Z,99.51
2022-12-26T13:02:57.019Z,99.77
2022-12-26T13:05:39.089Z,99.83
2022-12-26T13:08:16.737Z,99.55
2022-12-26T13:10:53.460Z,99.65
2022-12-26T13:13:29.778Z,99.90
2022-12-26T13:16:08.276Z,99.76
2022-12-26T13:18:48.627Z,99.89
2022-12-26T13:21:23.120Z,99.91
2022-12-26T13:24:19.936Z,99.93
2022-12-26T13:26:59.467Z,99.89
2022-12-26T13:29:40.639Z,99.82
2022-12-26T13:32:24.470Z,99.68
2022-12-26T13:34:59.450Z,99.73
2022-12-26T13:37:55.867Z,99.91
2022-12-26T13:40:32.193Z,99.95
2022-12-26T13:43:35.935Z,99.92
2022-12-26T13:46:30.097Z,99.85
2022-12-26T13:49:02.895Z,100.00
2022-12-26T13:51:50.173Z,99.92
2022-12-26T13:54:24.774Z,99.99
2022-12-26T13:57:28.537Z,99.85
2022-12-26T14:00:09.503Z,100.00
2022-12-26T14:03:25.774Z,99.81
2022-12-26T14:06:23.964Z,99.96
2022-12-26T14:09:29.718Z,99.88
2022-12-26T14:12:15.271Z,99.85
2022-12-26T14:15:04.313Z,99.87
2022-12-26T14:17:46.668Z,99.77
2022-12-26T14:20:37.311Z,99.96
2022-12-26T14:23:30.072Z,99.85
2022-12-26T14:26:09.510Z,99.93
2022-12-26T14:28:57.777Z,99.88
2022-12-26T14:31:39.748Z,99.88
2022-12-26T14:34:26.385Z,99.93
2022-12-26T14:37:05.485Z,99.83
2022-12-26T14:40:02.950Z,99.63
2022-12-26T14:43:11.828Z,99.88
2022-12-26T14:45:51.061Z,99.57
2022-12-26T14:48:52.615Z,99.72
2022-12-26T14:51:42.360Z,99.65
2022-12-26T14:54:50.967Z,99.69
2022-12-26T14:57:53.951Z,99.57
2022-12-26T15:00:43.851Z,99.72
2022-12-26T15:03:37.649Z,99.64
2022-12-26T15:06:44.174Z,99.67
2022-12-26T15:09:55.407Z,99.80
2022-12-26T15:13:04.315Z,99.88
2022-12-26T15:15:48.535Z,99.86
2022-12-26T15:18:53.147Z,99.84
2022-12-26T15:21:47.407Z,99.90
2022-12-26T15:25:17.649Z,99.80
2022-12-26T15:28:04.009Z,99.82
2022-12-26T15:30:58.206Z,99.72
2022-12-26T15:33:40.482Z,99.70
2022-12-26T15:36:26.492Z,99.82
2022-12-26T15:39:04.872Z,99.64
2022-12-26T15:41:46.925Z,99.70
2022-12-26T15:44:27.912Z,99.62
2022-12-26T15:47:19.260Z,99.75
2022-12-26T15:50:03.034Z,99.72
2022-12-26T15:52:47.939Z,99.62
2022-12-26T15:55:34.691Z,99.68
2022-12-26T15:58:13.358Z,99.68
2022-12-26T16:00:53.881Z,99.43
2022-12-26T16:03:35.706Z,99.42
2022-12-26T16:06:33.858Z,99.43
2022-12-26T16:09:33.459Z,99.70
2022-12-26T16:12:26.095Z,99.50
2022-12-26T16:15:16.147Z,99.58
2022-12-26T16:17:49.028Z,99.51
2022-12-26T16:20:51.741Z,99.40
2022-12-26T16:23:28.338Z,99.38
2022-12-26T16:26:01.683Z,99.63
2022-12-26T16:28:38.896Z,99.61
2022-12-26T16:31:18.485Z,99.71
2022-12-26T16:33:52.267Z,99.67
2022-12-26T16:36:30.008Z,99.79
2022-12-26T16:39:02.465Z,99.79
2022-12-26T16:41:37.220Z,99.52
2022-12-26T16:44:31.635Z,99.52
2022-12-26T16:47:06.584Z,99.58
2022-12-26T16:49:38.149Z,99.55
2022-12-26T16:52:30.703Z,99.64
2022-12-26T16:55:27.489Z,99.57
2022-12-26T16:58:02.899Z,99.63
2022-12-26T17:00:35.438Z,99.63
2022-12-26T17:03:19.577Z,99.33
2022-12-26T17:05:52.036Z,99.36
2022-12-26T17:08:26.135Z,99.18
2022-12-26T17:10:58.598Z,99.43
2022-12-26T17:13:31.098Z,99.43
2022-12-26T17:16:10.677Z,99.38
2022-12-26T17:18:52.690Z,99.06
2022-12-26T17:21:31.104Z,99.24
2022-12-26T17:24:26.911Z,99.28
2022-12-26T17:27:10.617Z,99.30
2022-12-26T17:30:00.719Z,99.05
2022-12-26T17:32:40.923Z,99.20
2022-12-26T17:35:19.158Z,99.21
2022-12-26T17:37:57.537Z,98.95
2022-12-26T17:40:35.159Z,98.94
2022-12-26T17:43:21.744Z,99.00
2022-12-26T17:45:54.161Z,98.91
2022-12-26T17:48:26.774Z,98.70
2022-12-26T17:51:03.030Z,98.79
2022-12-26T17:53:37.658Z,98.67
2022-12-26T17:56:14.974Z,98.80
2022-12-26T17:58:47.423Z,98.82
2022-12-26T18:01:22.218Z,98.76
2022-12-26T18:03:54.930Z,98.99
2022-12-26T18:06:27.559Z,99.07
2022-12-26T18:08:59.906Z,99.12
2022-12-26T18:11:32.284Z,99.06
2022-12-26T18:14:04.628Z,99.05
2022-12-26T18:16:37.090Z,98.91
2022-12-26T18:19:14.227Z,98.88
2022-12-26T18:21:46.650Z,98.82
2022-12-26T18:24:19.035Z,98.86
2022-12-26T18:26:51.610Z,98.95
2022-12-26T18:29:23.985Z,98.98
2022-12-26T18:31:56.477Z,98.92
2022-12-26T18:34:28.964Z,98.72
2022-12-26T18:37:01.313Z,98.82
2022-12-26T18:39:33.567Z,98.64
2022-12-26T18:42:07.154Z,98.57
2022-12-26T18:44:39.554Z,98.52
2022-12-26T18:47:13.435Z,98.49
2022-12-26T18:49:46.077Z,98.49
2022-12-26T18:52:18.437Z,98.46
2022-12-26T18:54:50.840Z,98.39
2022-12-26T18:57:23.391Z,98.44
2022-12-26T18:59:56.442Z,98.33
2022-12-26T19:02:28.883Z,98.11
2022-12-26T19:05:01.635Z,98.33
2022-12-26T19:07:34.015Z,98.30
2022-12-26T19:10:07.427Z,98.30
2022-12-26T19:12:39.779Z,98.08
2022-12-26T19:15:14.667Z,98.04
2022-12-26T19:17:47.191Z,97.89
2022-12-26T19:20:22.984Z,97.70
2022-12-26T19:22:56.447Z,97.54
2022-12-26T19:25:29.026Z,97.61
2022-12-26T19:28:02.502Z,97.43
2022-12-26T19:30:38.838Z,97.32
2022-12-26T19:33:11.671Z,97.56
2022-12-26T19:35:44.105Z,97.61
2022-12-26T19:38:16.463Z,97.44
2022-12-26T19:40:48.791Z,97.42
2022-12-26T19:43:21.235Z,97.52
2022-12-26T19:46:01.833Z,97.54
2022-12-26T19:48:35.375Z,97.30
2022-12-26T19:51:09.469Z,97.06
2022-12-26T19:53:42.738Z,96.81
2022-12-26T19:56:16.548Z,96.92
2022-12-26T19:58:55.942Z,96.92
2022-12-26T20:01:32.002Z,96.94
2022-12-26T20:04:07.048Z,96.89
2022-12-26T20:06:40.911Z,96.88
2022-12-26T20:09:15.006Z,96.98
2022-12-26T20:11:49.952Z,96.82
2022-12-26T20:14:27.059Z,96.76
2022-12-26T20:17:06.072Z,96.81
2022-12-26T20:19:40.409Z,96.50
2022-12-26T20:22:13.091Z,96.59
2022-12-26T20:24:46.948Z,96.68
2022-12-26T20:27:19.425Z,96.65
2022-12-26T20:29:51.772Z,96.78
2022-12-26T20:32:24.221Z,96.60
2022-12-26T20:34:56.594Z,96.63
2022-12-26T20:37:29.367Z,96.57
2022-12-26T20:40:01.710Z,96.47
2022-12-26T20:42:34.121Z,96.40
2022-12-26T20:45:07.866Z,96.39
2022-12-26T20:47:40.276Z,96.13
2022-12-26T20:50:12.781Z,95.92
2022-12-26T20:52:45.171Z,95.91
2022-12-26T20:55:18.290Z,95.88
2022-12-26T20:57:50.666Z,95.95
2022-12-26T21:00:23.088Z,96.17
2022-12-26T21:02:55.771Z,96.49
2022-12-26T21:05:28.320Z,96.53
2022-12-26T21:08:00.719Z,96.62
2022-12-26T21:10:33.785Z,96.53
2022-12-26T21:13:06.306Z,96.57
2022-12-26T21:15:39.297Z,96.57
2022-12-26T21:18:11.606Z,96.45
2022-12-26T21:20:43.941Z,96.46
2022-12-26T21:23:16.372Z,96.43
2022-12-26T21:25:48.869Z,96.54
2022-12-26T21:28:21.217Z,96.77
2022-12-26T21:30:53.651Z,96.68
2022-12-26T21:33:26.319Z,96.66
2022-12-26T21:35:59.156Z,96.67
2022-12-26T21:38:32.704Z,96.86
2022-12-26T21:41:07.233Z,96.64
2022-12-26T21:43:39.906Z,96.79
2022-12-26T21:46:16.197Z,96.96
2022-12-26T21:48:50.325Z,96.75
2022-12-26T21:51:26.195Z,96.95
2022-12-26T21:54:22.959Z,96.96
2022-12-26T21:56:55.337Z,97.02
2022-12-26T21:59:45.549Z,96.90
2022-12-26T22:02:32.338Z,97.05
2022-12-26T22:05:05.192Z,97.03
2022-12-26T22:07:37.576Z,96.98
2022-12-26T22:10:34.741Z,96.99
2022-12-26T22:13:08.101Z,97.02
2022-12-26T22:16:03.511Z,97.15
2022-12-26T22:18:38.419Z,97.02
2022-12-26T22:21:13.320Z,96.99
2022-12-26T22:23:46.102Z,97.11
2022-12-26T22:26:19.169Z,97.11
2022-12-26T22:28:51.566Z,97.06
2022-12-26T22:31:25.690Z,97.03
2022-12-26T22:33:59.922Z,97.00
2022-12-26T22:36:33.221Z,96.88
2022-12-26T22:39:06.284Z,96.79
2022-12-26T22:41:38.754Z,96.75
2022-12-26T22:44:11.154Z,96.68
2022-12-26T22:46:44.335Z,96.46
2022-12-26T22:49:16.719Z,96.46
2022-12-26T22:51:49.430Z,96.30
2022-12-26T22:54:22.310Z,96.37
2022-12-26T22:56:54.689Z,95.97
2022-12-26T22:59:58.120Z,95.69
2022-12-26T23:02:20.642Z,95.78
2022-12-26T23:04:54.148Z,95.48
2022-12-26T23:07:27.559Z,95.20
2022-12-26T23:10:00.615Z,95.37
2022-12-26T23:12:46.445Z,95.16
2022-12-26T23:15:22.763Z,95.11
2022-12-26T23:18:14.218Z,95.29
2022-12-26T23:21:04.569Z,95.26
2022-12-26T23:23:39.386Z,95.12
2022-12-26T23:26:12.195Z,94.80
2022-12-26T23:29:02.444Z,95.07
2022-12-26T23:31:34.894Z,95.19
2022-12-26T23:34:07.362Z,95.22
2022-12-26T23:36:39.713Z,95.35
2022-12-26T23:39:12.313Z,95.10
2022-12-26T23:41:45.737Z,95.15
2022-12-26T23:44:18.236Z,95.10
2022-12-26T23:46:50.815Z,95.37
2022-12-26T23:49:23.317Z,95.40
2022-12-26T23:51:55.581Z,95.33
2022-12-26T23:54:28.649Z,95.37
2022-12-26T23:57:01.007Z,95.34
2022-12-26T23:59:33.421Z,95.19
